createdAt,value
2023-04-15T00:00:28.050Z,184.6046
2023-04-15T00:01:28.607Z,245.8294
2023-04-15T00:02:29.258Z,253.6475
2023-04-15T00:03:30.087Z,252.9416
2023-04-15T00:04:30.983Z,252.6475
2023-04-15T00:05:31.538Z,252.1769
2023-04-15T00:06:32.100Z,251.7651
2023-04-15T00:07:32.637Z,247.2393
2023-04-15T00:08:33.198Z,240.4710
2023-04-15T00:09:34.308Z,240.1769
2023-04-15T00:10:34.833Z,240.4121
2023-04-15T00:11:35.366Z,240.4710
2023-04-15T00:12:36.064Z,240.3533
2023-04-15T00:13:36.569Z,240.4122
2023-04-15T00:14:37.147Z,240.4121
2023-04-15T00:15:37.714Z,240.4121
2023-04-15T00:16:38.318Z,240.7063
2023-04-15T00:17:38.905Z,240.5887
2023-04-15T00:18:39.466Z,240.0004
2023-04-15T00:19:40.294Z,239.4710
2023-04-15T00:20:40.814Z,237.4122
2023-04-15T00:21:41.333Z,0.0000
2023-04-15T00:22:41.891Z,237.0004
2023-04-15T00:23:42.446Z,237.1769
2023-04-15T00:24:43.256Z,0.0000
2023-04-15T00:25:43.851Z,0.0000
2023-04-15T00:26:44.375Z,0.0000
2023-04-15T00:27:44.945Z,0.0000
2023-04-15T00:28:45.514Z,0.0000
2023-04-15T00:29:46.311Z,0.0000
2023-04-15T00:30:46.944Z,0.0000
2023-04-15T00:31:47.471Z,0.0000
2023-04-15T00:32:48.086Z,0.0000
2023-04-15T00:33:48.624Z,0.0000
2023-04-15T00:34:49.156Z,0.0000
2023-04-15T00:35:49.681Z,0.0000
2023-04-15T00:36:50.248Z,0.0000
2023-04-15T00:37:50.806Z,0.0000
2023-04-15T00:38:51.388Z,0.0000
2023-04-15T00:39:52.012Z,0.0000
2023-04-15T00:40:52.558Z,237.1769
2023-04-15T00:41:53.129Z,236.8828
2023-04-15T00:42:53.666Z,237.5298
2023-04-15T00:43:54.212Z,237.2946
2023-04-15T00:44:54.781Z,237.0005
2023-04-15T00:45:55.440Z,237.2946
2023-04-15T00:46:56.315Z,237.2946
2023-04-15T00:47:56.934Z,236.2357
2023-04-15T00:48:57.836Z,235.9416
2023-04-15T00:49:58.406Z,235.7651
2023-04-15T00:50:58.973Z,235.8240
2023-04-15T00:51:59.728Z,235.7651
2023-04-15T00:53:00.313Z,235.4709
2023-04-15T00:54:00.850Z,235.6474
2023-04-15T00:55:01.445Z,235.4122
2023-04-15T00:56:02.011Z,235.0592
2023-04-15T00:57:02.667Z,235.3534
2023-04-15T00:59:06.310Z,235.4122
2023-04-15T01:00:06.921Z,235.2357
2023-04-15T01:01:09.115Z,235.5716
2023-04-15T01:02:09.749Z,234.7063
2023-04-15T01:07:13.785Z,235.7503
2023-04-15T01:10:53.283Z,211.6927
2023-04-15T01:11:47.022Z,205.0004
2023-04-15T01:12:47.577Z,205.0592
2023-04-15T01:13:48.294Z,205.3534
2023-04-15T01:14:48.382Z,205.9997
2023-04-15T01:15:49.021Z,0.0000
2023-04-15T01:16:49.829Z,0.0000
2023-04-15T01:17:50.414Z,0.0000
2023-04-15T01:18:50.947Z,0.0000
2023-04-15T01:19:51.501Z,0.0000
2023-04-15T01:20:52.034Z,0.0000
2023-04-15T01:21:52.697Z,0.0000
2023-04-15T01:22:53.180Z,0.0000
2023-04-15T01:23:53.734Z,0.0000
2023-04-15T01:24:54.473Z,0.0000
2023-04-15T01:25:55.019Z,0.0000
2023-04-15T01:26:55.604Z,0.0000
2023-04-15T01:28:10.865Z,0.0000
2023-04-15T01:28:57.291Z,0.0000
2023-04-15T01:29:57.891Z,0.0000
2023-04-15T01:30:58.391Z,204.9416
2023-04-15T01:31:59.052Z,204.8239
2023-04-15T01:32:59.640Z,205.0592
2023-04-15T01:34:00.207Z,205.0004
2023-04-15T01:35:00.717Z,202.8237
2023-04-15T01:36:01.249Z,191.0025
2023-04-15T01:37:01.881Z,168.1753
2023-04-15T01:38:02.461Z,167.1181
2023-04-15T01:39:03.099Z,167.3533
2023-04-15T01:40:03.727Z,167.0004
2023-04-15T01:41:04.301Z,167.3534
2023-04-15T01:42:04.827Z,167.3533
2023-04-15T01:43:05.398Z,167.3534
2023-04-15T01:44:05.929Z,0.0000
2023-04-15T01:45:06.468Z,0.0000
2023-04-15T01:46:06.998Z,0.0000
2023-04-15T01:47:07.546Z,0.0000
2023-04-15T01:48:08.138Z,0.0000
2023-04-15T01:49:08.937Z,0.0000
2023-04-15T01:50:09.462Z,0.0000
2023-04-15T01:51:10.043Z,0.0000
2023-04-15T01:52:10.583Z,0.0000
2023-04-15T01:53:11.154Z,0.0000
2023-04-15T01:54:12.300Z,0.0000
2023-04-15T01:55:12.858Z,0.0000
2023-04-15T01:56:15.283Z,0.0000
2023-04-15T01:57:15.104Z,0.0000
2023-04-15T01:58:15.592Z,0.0000
2023-04-15T01:59:16.326Z,0.0000
2023-04-15T02:00:16.844Z,0.0000
2023-04-15T02:01:17.431Z,0.0000
2023-04-15T02:02:17.987Z,167.4122
2023-04-15T02:03:18.640Z,167.2357
2023-04-15T02:04:20.768Z,167.1769
2023-04-15T02:05:24.807Z,167.7500
2023-04-15T02:06:25.359Z,167.1769
2023-04-15T02:07:25.884Z,167.1181
2023-04-15T02:08:26.420Z,167.1769
2023-04-15T02:09:26.965Z,167.2945
2023-04-15T02:10:27.539Z,167.1769
2023-04-15T02:11:28.301Z,167.4710
2023-04-15T02:12:28.809Z,167.0592
2023-04-15T02:13:29.356Z,167.1769
2023-04-15T02:14:29.858Z,167.1769
2023-04-15T02:15:30.381Z,167.4710
2023-04-15T02:16:30.983Z,167.1180
2023-04-15T02:17:31.526Z,167.1181
2023-04-15T02:18:32.032Z,167.4122
2023-04-15T02:19:32.556Z,167.4710
2023-04-15T02:20:33.089Z,167.3533
2023-04-15T02:21:34.258Z,0.0000
2023-04-15T02:22:34.877Z,166.7651
2023-04-15T02:23:35.438Z,167.1181
2023-04-15T02:24:35.931Z,168.3534
2023-04-15T02:25:36.453Z,170.2945
2023-04-15T02:26:37.013Z,175.2365
2023-04-15T02:27:37.546Z,178.4710
2023-04-15T02:28:38.077Z,179.8239
2023-04-15T02:29:38.665Z,174.3011
2023-04-15T02:30:39.195Z,165.5887
2023-04-15T02:31:40.015Z,167.8255
2023-04-15T02:32:40.594Z,171.6492
2023-04-15T02:33:41.105Z,167.0590
2023-04-15T02:34:41.660Z,163.9416
2023-04-15T02:35:42.233Z,163.4122
2023-04-15T02:36:42.807Z,155.8757
2023-04-15T02:37:43.434Z,162.0591
2023-04-15T02:38:44.055Z,163.0596
2023-04-15T02:39:44.582Z,166.1369
2023-04-15T02:40:45.142Z,139.9911
2023-04-15T02:41:45.977Z,139.1716
2023-04-15T02:42:46.581Z,145.6040
2023-04-15T02:43:47.112Z,140.3752
2023-04-15T02:44:47.680Z,144.5787
2023-04-15T02:45:48.398Z,137.1098
2023-04-15T02:46:49.094Z,130.2408
2023-04-15T02:47:49.707Z,129.1621
2023-04-15T02:48:50.485Z,149.0073
2023-04-15T02:49:51.002Z,150.7063
2023-04-15T02:50:52.048Z,126.4533
2023-04-15T02:51:52.857Z,112.8239
2023-04-15T02:52:53.385Z,149.5457
2023-04-15T02:53:53.973Z,145.6243
2023-04-15T02:54:54.530Z,124.2357
2023-04-15T02:55:55.065Z,133.9271
2023-04-15T02:56:55.814Z,195.7770
2023-04-15T02:57:56.365Z,168.3533
2023-04-15T02:58:56.960Z,171.1903
2023-04-15T02:59:57.454Z,152.4139
2023-04-15T03:00:57.998Z,161.7637
2023-04-15T03:01:58.549Z,177.9372
2023-04-15T03:02:59.215Z,174.9418
2023-04-15T03:03:59.904Z,171.9973
2023-04-15T03:05:00.425Z,167.7177
2023-04-15T03:06:00.943Z,169.1203
2023-04-15T03:07:01.487Z,172.1181
2023-04-15T03:08:02.032Z,173.7123
2023-04-15T03:09:02.731Z,175.9445
2023-04-15T03:10:03.324Z,176.4247
2023-04-15T03:11:03.895Z,171.6323
2023-04-15T03:12:04.421Z,166.9415
2023-04-15T03:13:04.986Z,169.5299
2023-04-15T03:14:05.547Z,169.4122
2023-04-15T03:15:06.083Z,170.2357
2023-04-15T03:16:06.718Z,172.3529
2023-04-15T03:17:07.275Z,174.2498
2023-04-15T03:18:07.928Z,156.6478
2023-04-15T03:19:08.484Z,163.0068
2023-04-15T03:20:09.061Z,164.1824
2023-04-15T03:21:09.563Z,157.0410
2023-04-15T03:22:10.122Z,153.9788
2023-04-15T03:23:10.650Z,141.8860
2023-04-15T03:24:11.219Z,150.0600
2023-04-15T03:25:11.748Z,164.1674
2023-04-15T03:26:12.300Z,164.9333
2023-04-15T03:27:12.804Z,162.8088
2023-04-15T03:28:13.345Z,149.4125
2023-04-15T03:29:15.424Z,140.4795
2023-04-15T03:30:15.935Z,141.5085
2023-04-15T03:31:16.828Z,143.3488
2023-04-15T03:32:17.339Z,137.8839
2023-04-15T03:33:17.890Z,150.5901
2023-04-15T03:34:18.442Z,156.5888
2023-04-15T03:35:19.012Z,115.7953
2023-04-15T03:36:19.541Z,112.4123
2023-04-15T03:37:20.054Z,0.0000
2023-04-15T03:38:20.621Z,113.7039
2023-04-15T03:39:21.174Z,126.8239
2023-04-15T03:40:21.706Z,127.7651
2023-04-15T03:41:22.500Z,128.8238
2023-04-15T03:42:23.003Z,132.4122
2023-04-15T03:43:23.574Z,143.8869
2023-04-15T03:44:24.129Z,153.1769
2023-04-15T03:45:24.690Z,153.0004
2023-04-15T03:46:25.487Z,151.5298
2023-04-15T03:47:25.991Z,152.2358
2023-04-15T03:48:26.516Z,152.9416
2023-04-15T03:49:27.076Z,152.3534
2023-04-15T03:50:27.593Z,141.7895
2023-04-15T03:51:28.135Z,148.7650
2023-04-15T03:52:28.697Z,170.6708
2023-04-15T03:53:29.288Z,182.6499
2023-04-15T03:54:29.833Z,161.4714
2023-04-15T03:55:30.361Z,155.0004
2023-04-15T03:56:31.126Z,155.1769
2023-04-15T03:57:31.692Z,155.5298
2023-04-15T03:58:32.282Z,155.3534
2023-04-15T03:59:32.850Z,155.3534
2023-04-15T04:00:33.401Z,155.5886
2023-04-15T04:01:34.021Z,155.3533
2023-04-15T04:02:34.612Z,156.3533
2023-04-15T04:03:35.357Z,155.7063
2023-04-15T04:04:36.056Z,160.4660
2023-04-15T04:05:36.572Z,165.5887
2023-04-15T04:06:37.109Z,166.1769
2023-04-15T04:07:37.652Z,165.9416
2023-04-15T04:08:38.283Z,165.7651
2023-04-15T04:09:38.809Z,164.3533
2023-04-15T04:10:39.402Z,164.8240
2023-04-15T04:11:40.262Z,165.3534
2023-04-15T04:12:40.769Z,165.5887
2023-04-15T04:13:41.394Z,165.4122
2023-04-15T04:14:41.934Z,156.9435
2023-04-15T04:15:42.480Z,139.2179
2023-04-15T04:16:44.886Z,144.2212
2023-04-15T04:17:45.406Z,153.3566
2023-04-15T04:18:45.984Z,150.0592
2023-04-15T04:19:46.554Z,147.9412
2023-04-15T04:20:47.102Z,146.5297
2023-04-15T04:21:47.872Z,147.6475
2023-04-15T04:22:48.427Z,143.1166
2023-04-15T04:23:49.017Z,138.6393
2023-04-15T04:24:49.538Z,140.1772
2023-04-15T04:25:50.076Z,133.1180
2023-04-15T04:26:50.609Z,135.4703
2023-04-15T04:27:51.172Z,130.5408
2023-04-15T04:28:51.918Z,133.3533
2023-04-15T04:29:52.478Z,134.4710
2023-04-15T04:30:52.997Z,130.8978
2023-04-15T04:31:53.630Z,125.4127
2023-04-15T04:32:54.191Z,133.8158
2023-04-15T04:33:54.718Z,121.1282
2023-04-15T04:34:55.246Z,124.1771
2023-04-15T04:35:55.778Z,154.6982
2023-04-15T04:36:56.353Z,168.8831
2023-04-15T04:37:56.907Z,115.8165
2023-04-15T04:38:57.441Z,141.6929
2023-04-15T04:39:57.957Z,94.2379
2023-04-15T04:40:58.463Z,158.5375
2023-04-15T04:41:59.244Z,176.4617
2023-04-15T04:42:59.807Z,152.7917
2023-04-15T04:44:00.353Z,163.1553
2023-04-15T04:45:00.892Z,173.8813
2023-04-15T04:46:01.481Z,157.5911
2023-04-15T04:47:02.072Z,149.2129
2023-04-15T04:48:02.759Z,144.8828
2023-04-15T04:49:03.770Z,145.2357
2023-04-15T04:50:04.359Z,154.2798
2023-04-15T04:51:04.910Z,130.5996
2023-04-15T04:52:05.444Z,153.1726
2023-04-15T04:53:05.974Z,145.2945
2023-04-15T04:54:06.787Z,134.6358
2023-04-15T04:55:07.337Z,128.2940
2023-04-15T04:56:07.872Z,153.6919
2023-04-15T04:57:08.423Z,150.3515
2023-04-15T04:58:09.008Z,159.2800
2023-04-15T04:59:09.557Z,140.2231
2023-04-15T05:00:10.142Z,126.7440
2023-04-15T05:01:10.781Z,145.5318
2023-04-15T05:02:11.341Z,155.0592
2023-04-15T05:03:12.148Z,154.9416
2023-04-15T05:04:13.182Z,159.6476
2023-04-15T05:05:13.768Z,163.5887
2023-04-15T05:06:14.320Z,146.8442
2023-04-15T05:07:14.898Z,163.3537
2023-04-15T05:08:15.507Z,163.9416
2023-04-15T05:09:16.378Z,163.7063
2023-04-15T05:10:16.957Z,147.1491
2023-04-15T05:11:17.467Z,121.5453
2023-04-15T05:12:17.988Z,139.6478
2023-04-15T05:13:18.545Z,130.1769
2023-04-15T05:14:19.138Z,161.3770
2023-04-15T05:15:19.679Z,168.6476
2023-04-15T05:16:20.295Z,170.0004
2023-04-15T05:17:20.903Z,170.3534
2023-04-15T05:18:21.447Z,169.7067
2023-04-15T05:19:22.012Z,166.4122
2023-04-15T05:20:22.547Z,170.1827
2023-04-15T05:21:23.079Z,145.2539
2023-04-15T05:22:23.634Z,153.1595
2023-04-15T05:23:24.517Z,150.1658
2023-04-15T05:24:25.066Z,140.8780
2023-04-15T05:25:25.584Z,159.6470
2023-04-15T05:26:26.143Z,147.0494
2023-04-15T05:27:26.725Z,161.0004
2023-04-15T05:28:27.271Z,148.3357
2023-04-15T05:29:27.817Z,150.5198
2023-04-15T05:30:28.348Z,155.7445
2023-04-15T05:31:29.209Z,142.8147
2023-04-15T05:32:29.840Z,141.1841
2023-04-15T05:33:30.416Z,135.2766
2023-04-15T05:34:31.035Z,139.6948
2023-04-15T05:35:31.603Z,165.0659
2023-04-15T05:36:32.189Z,155.6475
2023-04-15T05:37:32.764Z,156.1769
2023-04-15T05:38:33.556Z,150.1010
2023-04-15T05:39:34.163Z,145.8872
2023-04-15T05:40:34.755Z,160.0179
2023-04-15T05:41:35.336Z,154.5535
2023-04-15T05:42:35.899Z,140.2957
2023-04-15T05:43:36.521Z,143.7064
2023-04-15T05:44:37.153Z,149.2947
2023-04-15T05:45:37.729Z,162.3834
2023-04-15T05:46:38.583Z,166.1700
2023-04-15T05:47:39.259Z,179.6098
2023-04-15T05:48:39.895Z,154.2158
2023-04-15T05:49:40.492Z,136.4994
2023-04-15T05:50:41.071Z,112.2339
2023-04-15T05:51:41.733Z,140.1232
2023-04-15T05:52:42.277Z,160.3118
2023-04-15T05:53:42.851Z,155.4620
2023-04-15T05:54:43.438Z,154.6214
2023-04-15T05:55:44.040Z,162.7579
2023-04-15T05:56:44.617Z,164.8252
2023-04-15T05:57:45.227Z,173.4146
2023-04-15T05:58:46.017Z,150.4405
2023-04-15T05:59:46.562Z,162.7060
2023-04-15T06:00:47.149Z,151.5193
2023-04-15T06:01:47.981Z,162.2362
2023-04-15T06:02:48.661Z,157.5875
2023-04-15T06:03:49.445Z,154.7059
2023-04-15T06:04:50.186Z,134.5566
2023-04-15T06:05:50.688Z,146.7507
2023-04-15T06:06:51.256Z,147.4360
2023-04-15T06:07:51.823Z,154.5636
2023-04-15T06:08:52.458Z,137.7432
2023-04-15T06:09:53.040Z,134.3711
2023-04-15T06:10:53.622Z,146.3062
2023-04-15T06:11:54.310Z,140.8248
2023-04-15T06:12:54.838Z,169.7652
2023-04-15T06:13:55.414Z,171.3533
2023-04-15T06:14:56.022Z,171.3533
2023-04-15T06:15:56.605Z,168.5982
2023-04-15T06:16:57.247Z,138.7706
2023-04-15T06:17:57.830Z,161.4710
2023-04-15T06:18:58.436Z,122.8432
2023-04-15T06:19:59.016Z,117.2666
2023-04-15T06:20:59.622Z,132.5814
2023-04-15T06:22:00.228Z,129.2346
2023-04-15T06:23:00.823Z,147.9246
2023-04-15T06:24:01.473Z,144.1095
2023-04-15T06:25:02.116Z,153.1415
2023-04-15T06:26:02.712Z,151.1181
2023-04-15T06:27:03.312Z,151.6468
2023-04-15T06:28:03.898Z,157.4744
2023-04-15T06:29:04.483Z,135.4474
2023-04-15T06:30:05.088Z,110.9496
2023-04-15T06:31:07.269Z,127.8830
2023-04-15T06:32:07.827Z,180.1845
2023-04-15T06:33:08.467Z,183.0004
2023-04-15T06:34:09.105Z,0.0000
2023-04-15T06:35:09.698Z,181.8240
2023-04-15T06:36:10.355Z,110.0335
2023-04-15T06:37:10.904Z,125.8011
2023-04-15T06:38:11.503Z,117.7063
2023-04-15T06:39:12.079Z,117.7651
2023-04-15T06:40:12.675Z,137.8351
2023-04-15T06:41:13.256Z,171.7651
2023-04-15T06:42:13.848Z,167.8254
2023-04-15T06:43:14.477Z,136.5887
2023-04-15T06:44:15.080Z,136.5887
2023-04-15T06:45:15.701Z,136.5298
2023-04-15T06:46:16.368Z,137.5887
2023-04-15T06:47:17.017Z,137.5887
2023-04-15T06:48:17.629Z,139.2944
2023-04-15T06:49:18.237Z,142.2946
2023-04-15T06:50:18.866Z,151.1223
2023-04-15T06:51:19.457Z,159.1579
2023-04-15T06:52:20.074Z,199.7649
2023-04-15T06:53:20.624Z,216.3534
2023-04-15T06:54:21.234Z,216.4710
2023-04-15T06:55:21.828Z,216.3533
2023-04-15T06:56:22.408Z,217.4121
2023-04-15T06:57:23.017Z,219.3532
2023-04-15T06:58:23.571Z,231.6883
2023-04-15T06:59:24.145Z,237.2949
2023-04-15T07:00:24.779Z,230.9416
2023-04-15T07:01:25.390Z,226.8013
2023-04-15T07:02:26.127Z,195.7130
2023-04-15T07:03:26.731Z,184.5298
2023-04-15T07:04:27.335Z,160.1497
2023-04-15T07:05:27.985Z,121.6263
2023-04-15T07:06:28.625Z,119.0004
2023-04-15T07:07:29.191Z,146.7729
2023-04-15T07:08:30.025Z,179.2357
2023-04-15T07:09:30.595Z,179.2946
2023-04-15T07:10:31.190Z,179.6475
2023-04-15T07:11:31.789Z,180.0004
2023-04-15T07:12:32.365Z,179.8828
2023-04-15T07:13:32.936Z,179.9416
2023-04-15T07:14:33.520Z,0.0000
2023-04-15T07:15:34.123Z,180.1181
2023-04-15T07:16:34.770Z,180.0004
2023-04-15T07:17:35.411Z,187.0791
2023-04-15T07:18:35.993Z,180.9410
2023-04-15T07:19:36.590Z,192.8840
2023-04-15T07:20:37.232Z,202.1011
2023-04-15T07:21:38.928Z,194.7064
2023-04-15T07:22:40.522Z,195.4711
2023-04-15T07:23:41.347Z,201.7889
2023-04-15T07:24:41.922Z,194.6070
2023-04-15T07:25:42.541Z,193.6587
2023-04-15T07:26:43.105Z,190.4122
2023-04-15T07:27:43.691Z,189.3536
2023-04-15T07:28:44.307Z,202.8381
2023-04-15T07:29:44.902Z,190.8912
2023-04-15T07:30:45.499Z,195.8226
2023-04-15T07:31:46.119Z,233.6241
2023-04-15T07:32:46.758Z,225.9408
2023-04-15T07:33:47.303Z,311.5003
2023-04-15T07:34:47.908Z,268.7277
2023-04-15T07:35:48.530Z,209.3451
2023-04-15T07:36:49.116Z,256.4456
2023-04-15T07:37:49.912Z,292.2878
2023-04-15T07:38:50.495Z,313.0878
2023-04-15T07:39:51.124Z,288.9323
2023-04-15T07:40:51.865Z,252.7606
2023-04-15T07:41:52.438Z,260.9283
2023-04-15T07:42:53.009Z,252.7560
2023-04-15T07:43:53.685Z,236.7063
2023-04-15T07:44:54.259Z,255.4012
2023-04-15T07:45:55.114Z,258.2436
2023-04-15T07:46:55.659Z,282.6020
2023-04-15T07:47:56.381Z,278.8606
2023-04-15T07:48:56.986Z,281.6285
2023-04-15T07:49:57.616Z,297.7055
2023-04-15T07:50:58.226Z,277.2557
2023-04-15T07:51:58.826Z,260.4299
2023-04-15T07:52:59.665Z,240.7017
2023-04-15T07:54:00.241Z,291.3460
2023-04-15T07:55:00.874Z,290.7603
2023-04-15T07:56:01.733Z,278.5756
2023-04-15T07:57:02.330Z,295.4277
2023-04-15T07:58:03.041Z,303.7257
2023-04-15T07:59:03.805Z,292.1760
2023-04-15T08:00:04.566Z,294.7456
2023-04-15T08:01:05.171Z,286.0930
2023-04-15T08:02:05.932Z,258.9807
2023-04-15T08:03:06.573Z,288.2530
2023-04-15T08:04:07.377Z,254.4138
2023-04-15T08:05:07.982Z,259.7724
2023-04-15T08:06:08.577Z,252.9509
2023-04-15T08:07:09.157Z,287.9836
2023-04-15T08:08:09.751Z,277.2374
2023-04-15T08:09:10.357Z,285.9628
2023-04-15T08:10:11.112Z,272.6380
2023-04-15T08:11:11.921Z,302.5544
2023-04-15T08:12:12.505Z,306.1370
2023-04-15T08:13:13.106Z,280.3550
2023-04-15T08:14:13.689Z,244.5109
2023-04-15T08:15:14.296Z,324.0033
2023-04-15T08:16:14.866Z,6.0000
2023-04-15T08:17:15.627Z,326.9452
2023-04-15T08:18:16.277Z,320.8832
2023-04-15T08:19:16.872Z,287.6327
2023-04-15T08:20:17.503Z,266.4386
2023-04-15T08:21:18.165Z,264.6454
2023-04-15T08:22:20.105Z,271.3134
2023-04-15T08:23:22.175Z,269.4230
2023-04-15T08:24:22.818Z,268.9418
2023-04-15T08:25:23.430Z,271.8245
2023-04-15T08:26:24.022Z,271.7655
2023-04-15T08:27:24.608Z,271.2952
2023-04-15T08:28:25.199Z,264.3533
2023-04-15T08:29:25.838Z,264.9417
2023-04-15T08:30:26.666Z,0.0000
2023-04-15T08:31:27.403Z,265.1180
2023-04-15T08:32:27.985Z,273.8265
2023-04-15T08:33:28.904Z,310.3538
2023-04-15T08:34:29.484Z,317.3538
2023-04-15T08:35:30.158Z,317.3538
2023-04-15T08:36:30.759Z,317.4126
2023-04-15T08:37:31.551Z,317.0009
2023-04-15T08:38:32.167Z,0.0000
2023-04-15T08:39:32.835Z,317.0008
2023-04-15T08:40:33.689Z,317.2949
2023-04-15T08:41:34.275Z,317.7654
2023-04-15T08:42:34.901Z,319.0597
2023-04-15T08:43:35.526Z,318.3538
2023-04-15T08:44:36.102Z,318.8831
2023-04-15T08:45:36.692Z,0.0000
2023-04-15T08:46:37.371Z,0.0000
2023-04-15T08:47:38.204Z,0.0000
2023-04-15T08:48:38.817Z,0.0000
2023-04-15T08:49:39.481Z,0.0000
2023-04-15T08:50:40.124Z,0.0000
2023-04-15T08:51:40.731Z,329.0008
2023-04-15T08:52:41.555Z,338.8833
2023-04-15T08:53:42.179Z,337.8832
2023-04-15T08:54:42.779Z,338.2361
2023-04-15T08:55:43.567Z,338.5302
2023-04-15T08:56:44.379Z,338.0597
2023-04-15T08:57:44.953Z,338.6478
2023-04-15T08:58:45.508Z,0.0000
2023-04-15T08:59:46.086Z,0.0000
2023-04-15T09:00:46.760Z,0.0000
2023-04-15T09:01:47.445Z,337.9420
2023-04-15T09:02:48.152Z,338.2949
2023-04-15T09:03:48.852Z,338.2361
2023-04-15T09:04:49.537Z,338.3538
2023-04-15T09:05:51.461Z,338.9525
2023-04-15T09:06:50.227Z,336.9618
2023-04-15T09:07:50.858Z,41.8238
2023-04-15T09:08:51.385Z,41.4706
2023-04-15T09:09:51.949Z,41.3529
2023-04-15T09:10:52.559Z,40.5882
2023-04-15T09:11:53.158Z,40.7059
2023-04-15T09:12:53.769Z,40.2941
2023-04-15T09:13:54.357Z,40.3529
2023-04-15T09:14:54.932Z,40.2353
2023-04-15T09:15:55.497Z,39.8235
2023-04-15T09:16:56.106Z,39.6471
2023-04-15T09:17:56.715Z,39.5882
2023-04-15T09:18:57.326Z,30.9341
2023-04-15T09:19:57.908Z,24.0588
2023-04-15T09:20:58.490Z,24.7058
2023-04-15T09:21:59.414Z,26.2941
2023-04-15T09:23:00.440Z,26.5294
2023-04-15T09:24:01.403Z,26.1765
2023-04-15T09:25:02.437Z,26.1765
2023-04-15T09:26:03.052Z,26.0588
2023-04-15T09:27:03.680Z,26.3529
2023-04-15T09:28:04.494Z,26.3529
2023-04-15T09:29:05.101Z,0.0000
2023-04-15T09:30:05.668Z,25.9412
2023-04-15T09:31:06.283Z,22.7059
2023-04-15T09:32:06.869Z,22.5294
2023-04-15T09:33:07.511Z,0.0000
2023-04-15T09:34:08.056Z,22.9412
2023-04-15T09:35:08.893Z,22.7059
2023-04-15T09:36:09.587Z,22.9412
2023-04-15T09:37:10.543Z,0.0000
2023-04-15T09:38:11.113Z,22.4667
2023-04-15T09:39:11.680Z,22.2941
2023-04-15T09:40:12.269Z,15.7782
2023-04-15T09:41:12.842Z,5.0000
2023-04-15T09:42:13.427Z,5.0000
2023-04-15T09:43:14.032Z,5.0000
2023-04-15T09:44:14.582Z,5.0000
2023-04-15T09:45:15.200Z,5.0000
2023-04-15T09:46:15.793Z,5.0000
2023-04-15T09:47:16.672Z,5.2941
2023-04-15T09:48:17.299Z,5.2941
2023-04-15T09:49:17.973Z,346.6819
2023-04-15T09:50:18.551Z,337.9305
2023-04-15T09:51:19.213Z,348.1858
2023-04-15T09:52:19.794Z,0.0000
2023-04-15T09:53:20.387Z,336.4064
2023-04-15T09:54:20.974Z,346.6884
2023-04-15T09:55:21.552Z,4.7794
2023-04-15T09:56:22.138Z,115.2947
2023-04-15T09:57:22.693Z,117.1181
2023-04-15T09:58:23.278Z,116.8828
2023-04-15T09:59:23.844Z,117.8828
2023-04-15T10:00:24.985Z,118.1769
2023-04-15T10:01:25.565Z,118.0004
2023-04-15T10:02:26.287Z,118.0593
2023-04-15T10:03:27.000Z,0.0000
2023-04-15T10:04:27.958Z,118.1180
2023-04-15T10:05:29.775Z,118.0004
2023-04-15T10:06:30.777Z,105.7804
2023-04-15T10:07:31.349Z,91.6455
2023-04-15T10:08:31.958Z,95.5298
2023-04-15T10:09:32.553Z,104.5887
2023-04-15T10:10:33.133Z,104.8239
2023-04-15T10:11:33.692Z,108.6526
2023-04-15T10:12:34.315Z,114.4710
2023-04-15T10:13:34.877Z,116.0585
2023-04-15T10:14:35.506Z,118.4122
2023-04-15T10:15:36.090Z,122.2947
2023-04-15T10:16:36.634Z,128.2366
2023-04-15T10:17:37.461Z,144.2585
2023-04-15T10:18:38.150Z,148.3207
2023-04-15T10:19:38.771Z,130.6475
2023-04-15T10:20:39.365Z,127.4706
2023-04-15T10:21:39.949Z,125.6475
2023-04-15T10:22:40.757Z,121.5882
2023-04-15T10:23:41.280Z,120.4710
2023-04-15T10:25:44.935Z,109.6583
2023-04-15T10:26:45.556Z,150.3503
2023-04-15T10:27:46.122Z,174.1768
2023-04-15T10:28:46.710Z,173.2357
2023-04-15T10:29:47.299Z,159.6468
2023-04-15T10:30:47.880Z,214.5671
2023-04-15T10:31:48.576Z,220.8990
2023-04-15T10:32:49.169Z,211.8831
2023-04-15T10:33:49.733Z,205.8828
2023-04-15T10:34:51.071Z,202.8826
2023-04-15T10:35:52.414Z,257.5804
2023-04-15T10:36:52.978Z,271.3647
2023-04-15T10:37:53.552Z,263.9410
2023-04-15T10:38:54.132Z,247.6611
2023-04-15T10:39:54.910Z,258.2602
2023-04-15T10:40:55.514Z,236.8530
2023-04-15T10:41:56.167Z,222.2980
2023-04-15T10:42:56.725Z,208.6228
2023-04-15T10:43:57.295Z,186.8774
2023-04-15T10:44:57.868Z,207.1407
2023-04-15T10:45:58.445Z,220.3967
2023-04-15T10:46:59.277Z,270.3686
2023-04-15T10:48:01.596Z,214.4879
2023-04-15T10:49:00.359Z,204.5866
2023-04-15T10:50:00.985Z,258.5743
2023-04-15T10:51:01.591Z,262.6776
2023-04-15T10:52:02.167Z,257.5240
2023-04-15T10:53:02.726Z,250.0026
2023-04-15T10:54:03.536Z,239.0388
2023-04-15T10:55:04.114Z,246.3613
2023-04-15T10:56:04.682Z,239.3820
2023-04-15T10:57:05.250Z,253.9051
2023-04-15T10:58:05.866Z,250.7743
2023-04-15T10:59:06.431Z,289.6579
2023-04-15T11:00:07.001Z,286.9608
2023-04-15T11:01:07.616Z,356.6245
2023-04-15T11:02:08.479Z,293.9096
2023-04-15T11:03:09.518Z,300.1777
2023-04-15T11:04:10.543Z,263.2667
2023-04-15T11:05:11.097Z,242.4125
2023-04-15T11:06:11.669Z,259.8245
2023-04-15T11:07:12.257Z,281.9992
2023-04-15T11:08:12.868Z,259.3925
2023-04-15T11:09:13.690Z,271.0643
2023-04-15T11:10:14.279Z,253.9482
2023-04-15T11:11:14.831Z,280.5582
2023-04-15T11:12:15.445Z,285.4629
2023-04-15T11:13:16.062Z,264.2471
2023-04-15T11:14:16.632Z,256.6004
2023-04-15T11:15:17.199Z,199.2476
2023-04-15T11:16:17.820Z,216.2111
2023-04-15T11:17:18.698Z,250.6928
2023-04-15T11:18:19.297Z,292.1031
2023-04-15T11:19:19.908Z,274.0204
2023-04-15T11:20:20.499Z,280.6007
2023-04-15T11:21:21.088Z,278.6158
2023-04-15T11:22:21.666Z,293.4542
2023-04-15T11:23:22.534Z,291.4880
2023-04-15T11:24:23.318Z,299.1802
2023-04-15T11:25:24.043Z,281.7901
2023-04-15T11:26:24.697Z,269.1556
2023-04-15T11:27:25.293Z,264.6202
2023-04-15T11:28:25.856Z,271.7649
2023-04-15T11:29:26.465Z,263.6876
2023-04-15T11:30:27.080Z,308.6592
2023-04-15T11:31:27.701Z,258.6507
2023-04-15T11:32:28.282Z,311.1460
2023-04-15T11:33:28.911Z,243.3220
2023-04-15T11:34:29.493Z,274.5827
2023-04-15T11:35:30.084Z,275.2807
2023-04-15T11:36:30.645Z,274.6486
2023-04-15T11:37:31.252Z,250.7328
2023-04-15T11:38:31.834Z,253.3190
2023-04-15T11:39:32.429Z,236.9801
2023-04-15T11:40:32.980Z,251.2053
2023-04-15T11:41:33.579Z,274.4522
2023-04-15T11:42:48.741Z,253.1016
2023-04-15T11:43:37.148Z,242.5713
2023-04-15T11:44:37.735Z,250.0431
2023-04-15T11:45:38.340Z,253.5760
2023-04-15T11:46:38.912Z,242.7116
2023-04-15T11:47:39.509Z,278.5225
2023-04-15T11:48:40.113Z,271.0676
2023-04-15T11:49:40.953Z,274.9492
2023-04-15T11:50:41.559Z,272.6773
2023-04-15T11:51:42.099Z,263.2534
2023-04-15T11:52:42.656Z,254.9055
2023-04-15T11:53:43.281Z,291.5974
2023-04-15T11:54:43.873Z,293.1382
2023-04-15T11:55:44.683Z,318.8450
2023-04-15T11:56:45.244Z,355.9496
2023-04-15T11:57:45.839Z,336.5950
2023-04-15T11:58:46.572Z,279.0069
2023-04-15T11:59:47.220Z,286.8131
2023-04-15T12:00:47.878Z,271.0684
2023-04-15T12:01:48.711Z,254.9235
2023-04-15T12:02:49.360Z,251.5808
2023-04-15T12:03:50.545Z,276.1367
2023-04-15T12:04:51.360Z,246.2481
2023-04-15T12:05:51.976Z,257.5180
2023-04-15T12:06:52.585Z,239.9827